createdAt,value
2017-10-11T00:00:50.177Z,46.64
2017-10-11T00:01:59.211Z,47.03
2017-10-11T00:03:08.575Z,46.93
2017-10-11T00:04:17.599Z,47.03
2017-10-11T00:05:26.642Z,46.64
2017-10-11T00:06:35.997Z,47.03
2017-10-11T00:07:45.025Z,46.83
2017-10-11T00:08:54.382Z,46.83
2017-10-11T00:10:03.746Z,46.83
2017-10-11T00:11:12.441Z,46.64
2017-10-11T00:12:21.153Z,46.73
2017-10-11T00:13:30.843Z,46.73
2017-10-11T00:14:40.199Z,46.83
2017-10-11T00:15:49.563Z,46.93
2017-10-11T00:16:58.928Z,46.83
2017-10-11T00:18:08.293Z,46.93
2017-10-11T00:19:16.989Z,47.03
2017-10-11T00:20:26.680Z,47.12
2017-10-11T00:21:35.706Z,46.73
2017-10-11T00:22:44.737Z,46.55
2017-10-11T00:23:53.431Z,46.64
2017-10-11T00:25:02.127Z,46.83
2017-10-11T00:26:11.484Z,47.03
2017-10-11T00:27:20.515Z,46.83
2017-10-11T00:28:29.538Z,46.83
2017-10-11T00:29:38.234Z,46.83
2017-10-11T00:30:47.922Z,46.83
2017-10-11T00:31:56.943Z,46.83
2017-10-11T00:33:06.298Z,46.83
2017-10-11T00:34:14.992Z,46.73
2017-10-11T00:35:23.685Z,46.83
2017-10-11T00:36:33.371Z,46.83
2017-10-11T00:37:42.397Z,46.83
2017-10-11T00:38:52.088Z,46.64
2017-10-11T00:40:01.448Z,46.83
2017-10-11T00:41:10.475Z,46.83
2017-10-11T00:42:19.842Z,46.73
2017-10-11T00:43:28.866Z,46.64
2017-10-11T00:44:37.895Z,46.93
2017-10-11T00:45:47.589Z,46.83
2017-10-11T00:46:56.617Z,46.83
2017-10-11T00:48:05.991Z,46.73
2017-10-11T00:49:15.364Z,46.64
2017-10-11T00:50:24.403Z,46.83
2017-10-11T00:51:33.428Z,46.93
2017-10-11T00:52:42.450Z,46.73
2017-10-11T00:53:51.475Z,46.93
2017-10-11T00:55:00.504Z,46.93
2017-10-11T00:56:10.193Z,46.93
2017-10-11T00:57:19.221Z,46.73
2017-10-11T00:58:28.246Z,46.83
2017-10-11T00:59:37.279Z,47.12
2017-10-11T01:00:46.305Z,46.73
2017-10-11T01:01:55.675Z,46.83
2017-10-11T01:03:05.040Z,46.83
2017-10-11T01:04:14.068Z,46.83
2017-10-11T01:05:23.098Z,46.83
2017-10-11T01:06:31.794Z,46.83
2017-10-11T01:07:41.488Z,46.83
2017-10-11T01:08:50.178Z,46.73
2017-10-11T01:09:59.544Z,46.73
2017-10-11T01:11:08.899Z,46.83
2017-10-11T01:12:17.932Z,46.73
2017-10-11T01:13:27.304Z,46.73
2017-10-11T01:14:36.334Z,46.83
2017-10-11T01:15:45.706Z,46.83
2017-10-11T01:16:54.737Z,46.83
2017-10-11T01:18:03.434Z,46.73
2017-10-11T01:19:12.127Z,46.83
2017-10-11T01:20:21.486Z,46.83
2017-10-11T01:21:30.851Z,46.73
2017-10-11T01:22:40.538Z,46.73
2017-10-11T01:23:49.235Z,46.55
2017-10-11T01:24:58.602Z,46.83
2017-10-11T01:26:07.629Z,46.93
2017-10-11T01:27:16.985Z,47.12
2017-10-11T01:28:26.012Z,46.64
2017-10-11T01:29:34.703Z,46.83
2017-10-11T01:30:43.402Z,47.03
2017-10-11T01:31:52.752Z,47.03
2017-10-11T01:33:01.778Z,46.93
2017-10-11T01:34:10.802Z,46.83
2017-10-11T01:35:19.829Z,47.03
2017-10-11T01:36:28.531Z,46.83
2017-10-11T01:37:37.551Z,47.12
2017-10-11T01:38:46.910Z,47.03
2017-10-11T01:39:55.608Z,46.93
2017-10-11T01:41:04.635Z,47.12
2017-10-11T01:42:13.667Z,47.12
2017-10-11T01:43:22.697Z,46.93
2017-10-11T01:44:32.733Z,47.12
2017-10-11T01:45:42.751Z,46.93
2017-10-11T01:46:51.449Z,46.64
2017-10-11T01:48:00.476Z,47.12
2017-10-11T01:49:09.838Z,47.03
2017-10-11T01:50:18.867Z,46.55
2017-10-11T01:51:28.553Z,47.03
2017-10-11T01:52:37.252Z,46.15
2017-10-11T01:53:46.615Z,46.15
2017-10-11T01:54:55.635Z,47.03
2017-10-11T01:56:04.357Z,47.03
2017-10-11T01:57:13.020Z,47.03
2017-10-11T01:58:21.720Z,46.93
2017-10-11T01:59:31.077Z,46.64
2017-10-11T02:00:40.433Z,46.55
2017-10-11T02:01:49.125Z,46.45
2017-10-11T02:02:58.150Z,46.45
2017-10-11T02:04:06.843Z,46.35
2017-10-11T02:05:16.206Z,46.35
2017-10-11T02:06:25.227Z,46.45
2017-10-11T02:07:34.248Z,46.45
2017-10-11T02:08:42.941Z,46.83
2017-10-11T02:09:51.967Z,46.45
2017-10-11T02:11:01.654Z,46.35
2017-10-11T02:12:10.350Z,46.06
2017-10-11T02:13:19.047Z,47.12
2017-10-11T02:14:28.401Z,46.83
2017-10-11T02:15:37.428Z,46.55
2017-10-11T02:16:46.449Z,46.35
2017-10-11T02:17:55.470Z,46.45
2017-10-11T02:19:04.826Z,46.45
2017-10-11T02:20:13.852Z,46.35
2017-10-11T02:21:23.210Z,46.15
2017-10-11T02:22:32.573Z,46.35
2017-10-11T02:23:41.593Z,46.35
2017-10-11T02:24:50.622Z,46.45
2017-10-11T02:25:59.648Z,46.55
2017-10-11T02:27:09.003Z,46.93
2017-10-11T02:28:18.028Z,46.83
2017-10-11T02:29:28.049Z,46.93
2017-10-11T02:30:37.073Z,46.83
2017-10-11T02:31:45.772Z,47.03
2017-10-11T02:32:55.790Z,47.03
2017-10-11T02:34:05.149Z,46.83
2017-10-11T02:35:14.505Z,46.55
2017-10-11T02:36:23.544Z,46.83
2017-10-11T02:37:32.569Z,46.93
2017-10-11T02:38:41.943Z,47.03
2017-10-11T02:39:51.635Z,46.55
2017-10-11T02:41:01.001Z,46.55
2017-10-11T02:42:10.368Z,46.83
2017-10-11T02:43:19.410Z,46.83
2017-10-11T02:44:28.425Z,46.83
2017-10-11T02:45:37.451Z,46.83
2017-10-11T02:46:46.143Z,46.83
2017-10-11T02:47:55.837Z,46.83
2017-10-11T02:49:04.867Z,46.83
2017-10-11T02:50:13.890Z,46.93
2017-10-11T02:51:23.305Z,46.55
2017-10-11T02:52:32.662Z,47.03
2017-10-11T02:53:41.684Z,46.83
2017-10-11T02:54:51.392Z,47.03
2017-10-11T02:56:00.765Z,46.83
2017-10-11T02:57:10.127Z,47.03
2017-10-11T02:58:18.822Z,46.83
2017-10-11T02:59:27.862Z,46.83
2017-10-11T03:00:37.223Z,47.03
2017-10-11T03:01:46.597Z,46.93
2017-10-11T03:02:56.282Z,46.83
2017-10-11T03:04:05.637Z,47.03
2017-10-11T03:05:14.993Z,46.93
2017-10-11T03:06:24.019Z,46.83
2017-10-11T03:07:32.709Z,46.81
2017-10-11T03:08:41.735Z,46.81
2017-10-11T03:09:50.763Z,46.83
2017-10-11T03:10:59.458Z,47
2017-10-11T03:12:08.153Z,47.03
2017-10-11T03:13:16.846Z,47.03
2017-10-11T03:14:26.209Z,47.03
2017-10-11T03:15:35.906Z,47
2017-10-11T03:16:44.937Z,46.83
2017-10-11T03:17:53.964Z,46.83
2017-10-11T03:19:03.327Z,46.93
2017-10-11T03:20:12.348Z,46.83
2017-10-11T03:21:21.372Z,47.03
2017-10-11T03:22:31.404Z,46.45
2017-10-11T03:23:40.760Z,46.45
2017-10-11T03:24:49.452Z,45.97
2017-10-11T03:25:58.480Z,46.15
2017-10-11T03:27:07.509Z,46.06
2017-10-11T03:28:16.537Z,46.45
2017-10-11T03:29:25.569Z,46.45
2017-10-11T03:30:34.929Z,46.06
2017-10-11T03:31:43.952Z,46.45
2017-10-11T03:32:53.641Z,46.35
2017-10-11T03:34:02.665Z,46.81
2017-10-11T03:35:12.020Z,46.33
2017-10-11T03:36:20.715Z,46.55
2017-10-11T03:37:29.736Z,46.35
2017-10-11T03:38:38.431Z,46.25
2017-10-11T03:39:47.123Z,46.35
2017-10-11T03:40:57.480Z,46.33
2017-10-11T03:42:06.178Z,46.23
2017-10-11T03:43:15.536Z,46.23
2017-10-11T03:44:24.230Z,46.23
2017-10-11T03:45:33.252Z,46.23
2017-10-11T03:46:42.614Z,46.42
2017-10-11T03:47:51.974Z,45.94
2017-10-11T03:49:00.666Z,46.15
2017-10-11T03:50:09.700Z,46.42
2017-10-11T03:51:18.734Z,46.45
2017-10-11T03:52:27.754Z,46.33
2017-10-11T03:53:36.445Z,46.04
2017-10-11T03:54:45.485Z,46.52
2017-10-11T03:55:54.499Z,46.04
2017-10-11T03:57:03.853Z,46.52
2017-10-11T03:58:12.550Z,46.23
2017-10-11T03:59:21.574Z,45.84
2017-10-11T04:00:30.269Z,46.45
2017-10-11T04:01:39.290Z,46.23
2017-10-11T04:02:48.318Z,47
2017-10-11T04:03:57.011Z,47.1
2017-10-11T04:05:05.710Z,46.33
2017-10-11T04:06:15.074Z,46.14
2017-10-11T04:07:24.438Z,46.14
2017-10-11T04:08:33.794Z,46.33
2017-10-11T04:09:42.492Z,47
2017-10-11T04:10:51.878Z,47
2017-10-11T04:12:01.244Z,46.42
2017-10-11T04:13:09.945Z,46.42
2017-10-11T04:14:18.969Z,46.62
2017-10-11T04:15:27.660Z,46.45
2017-10-11T04:16:37.015Z,46.42
2017-10-11T04:17:46.041Z,46.33
2017-10-11T04:18:55.403Z,46.06
2017-10-11T04:20:04.426Z,46.23
2017-10-11T04:21:13.122Z,46.33
2017-10-11T04:22:22.144Z,46.23
2017-10-11T04:23:31.171Z,46.33
2017-10-11T04:24:39.872Z,46.14
2017-10-11T04:25:48.900Z,46.23
2017-10-11T04:26:57.923Z,46.23
2017-10-11T04:28:06.615Z,46.42
2017-10-11T04:29:15.654Z,46.23
2017-10-11T04:30:25.011Z,46.42
2017-10-11T04:31:34.372Z,46.15
2017-10-11T04:32:43.067Z,46.33
2017-10-11T04:33:52.091Z,46.23
2017-10-11T04:35:00.786Z,46.25
2017-10-11T04:36:09.814Z,46.25
2017-10-11T04:37:18.849Z,46.23
2017-10-11T04:38:27.545Z,46.35
2017-10-11T04:39:36.235Z,46.06
2017-10-11T04:40:44.934Z,46.15
2017-10-11T04:41:54.291Z,46.15
2017-10-11T04:43:03.313Z,46.06
2017-10-11T04:44:13.000Z,46.06
2017-10-11T04:45:22.035Z,45.97
2017-10-11T04:46:30.727Z,46.25
2017-10-11T04:47:39.752Z,46.45
2017-10-11T04:48:48.448Z,46.35
2017-10-11T04:49:57.802Z,46.25
2017-10-11T04:51:06.961Z,46.25
2017-10-11T04:52:15.986Z,46.25
2017-10-11T04:53:25.677Z,46.45
2017-10-11T04:54:35.030Z,45.97
2017-10-11T04:55:43.723Z,45.87
2017-10-11T04:56:53.092Z,45.87
2017-10-11T04:58:02.458Z,45.87
2017-10-11T04:59:11.484Z,45.77
2017-10-11T05:00:21.180Z,46.35
2017-10-11T05:01:30.217Z,46.35
2017-10-11T05:02:39.241Z,46.45
2017-10-11T05:03:48.933Z,46.45
2017-10-11T05:04:58.290Z,45.97
2017-10-11T05:06:07.665Z,46.15
2017-10-11T05:07:16.344Z,46.25
2017-10-11T05:08:26.034Z,46.15
2017-10-11T05:09:35.058Z,45.97
2017-10-11T05:10:44.088Z,46.15
2017-10-11T05:11:53.108Z,46.35
2017-10-11T05:13:02.130Z,46.06
2017-10-11T05:14:11.488Z,46.35
2017-10-11T05:15:20.520Z,46.35
2017-10-11T05:16:29.554Z,46.45
2017-10-11T05:17:38.578Z,46.64
2017-10-11T05:18:47.273Z,46.06
2017-10-11T05:19:56.300Z,46.35
2017-10-11T05:21:05.323Z,46.15
2017-10-11T05:22:14.349Z,46.06
2017-10-11T05:23:23.040Z,46.55
2017-10-11T05:24:32.395Z,46.25
2017-10-11T05:25:41.752Z,46.45
2017-10-11T05:26:51.111Z,46.45
2017-10-11T05:27:59.802Z,46.35
2017-10-11T05:29:08.826Z,46.35
2017-10-11T05:30:17.848Z,46.35
2017-10-11T05:31:27.197Z,46.25
2017-10-11T05:32:36.224Z,46.25
2017-10-11T05:33:45.251Z,46.25
2017-10-11T05:34:54.609Z,46.35
2017-10-11T05:36:03.634Z,46.35
2017-10-11T05:37:12.326Z,46.25
2017-10-11T05:38:21.022Z,45.97
2017-10-11T05:39:29.717Z,46.15
2017-10-11T05:40:38.747Z,46.25
2017-10-11T05:41:48.104Z,46.35
2017-10-11T05:42:57.134Z,46.25
2017-10-11T05:44:06.160Z,46.15
2017-10-11T05:45:15.522Z,46.25
2017-10-11T05:46:24.547Z,46.45
2017-10-11T05:47:34.236Z,46.06
2017-10-11T05:48:43.263Z,45.97
2017-10-11T05:49:51.955Z,45.87
2017-10-11T05:51:01.982Z,46.25
2017-10-11T05:52:11.002Z,46.25
2017-10-11T05:53:20.029Z,46.25
2017-10-11T05:54:28.717Z,45.77
2017-10-11T05:55:37.740Z,45.48
2017-10-11T05:56:46.434Z,45.58
2017-10-11T05:57:55.133Z,45.58
2017-10-11T05:59:04.163Z,45.68
2017-10-11T06:00:13.193Z,45.58
2017-10-11T06:01:22.548Z,45.58
2017-10-11T06:02:31.240Z,45.58
2017-10-11T06:03:40.609Z,45.68
2017-10-11T06:04:50.302Z,45.58
2017-10-11T06:05:59.660Z,45.58
2017-10-11T06:07:08.352Z,45.58
2017-10-11T06:08:17.375Z,45.58
2017-10-11T06:09:26.066Z,45.58
2017-10-11T06:10:35.086Z,45.68
2017-10-11T06:11:44.114Z,45.58
2017-10-11T06:12:53.143Z,45.48
2017-10-11T06:14:01.838Z,45.77
2017-10-11T06:15:10.532Z,45.87
2017-10-11T06:16:19.562Z,45.68
2017-10-11T06:17:28.927Z,45.48
2017-10-11T06:18:38.689Z,45.79
2017-10-11T06:19:47.382Z,45.29
2017-10-11T06:20:56.748Z,45.48
2017-10-11T06:22:06.110Z,45.39
2017-10-11T06:23:15.463Z,45.77
2017-10-11T06:24:24.494Z,45.48
2017-10-11T06:25:33.520Z,45.87
2017-10-11T06:26:42.549Z,45.48
2017-10-11T06:27:52.233Z,45.87
2017-10-11T06:29:01.269Z,45.87
2017-10-11T06:30:10.294Z,45.2
2017-10-11T06:31:18.990Z,45.2
2017-10-11T06:32:27.684Z,45.58
2017-10-11T06:33:36.708Z,45.68
2017-10-11T06:34:45.735Z,45.2
2017-10-11T06:35:55.426Z,45.58
2017-10-11T06:37:04.120Z,45.48
2017-10-11T06:38:13.807Z,45.31
2017-10-11T06:39:22.505Z,45.2
2017-10-11T06:40:32.205Z,45.21
2017-10-11T06:41:41.890Z,45.31
2017-10-11T06:42:51.594Z,45.2
2017-10-11T06:44:00.621Z,45.79
2017-10-11T06:45:09.994Z,45.77
2017-10-11T06:46:18.688Z,45.58
2017-10-11T06:47:27.391Z,45.58
2017-10-11T06:48:36.763Z,45.51
2017-10-11T06:49:45.461Z,45.77
2017-10-11T06:50:54.488Z,45.89
2017-10-11T06:52:03.185Z,45.89
2017-10-11T06:53:12.215Z,45.41
2017-10-11T06:54:20.906Z,45.21
2017-10-11T06:55:30.260Z,45.21
2017-10-11T06:56:39.612Z,45.21
2017-10-11T06:57:48.304Z,45.41
2017-10-11T06:58:56.999Z,45.21
2017-10-11T07:00:05.695Z,45.03
2017-10-11T07:01:15.051Z,45.03
2017-10-11T07:02:23.742Z,44.93
2017-10-11T07:03:33.099Z,45.03
2017-10-11T07:04:42.130Z,45.12
2017-10-11T07:05:51.156Z,45.21
2017-10-11T07:07:00.181Z,45.12
2017-10-11T07:08:08.871Z,44.64
2017-10-11T07:09:17.565Z,44.93
2017-10-11T07:10:26.592Z,45.12
2017-10-11T07:11:35.288Z,45.12
2017-10-11T07:12:44.312Z,45.12
2017-10-11T07:13:53.676Z,45.21
2017-10-11T07:15:03.365Z,44.93
2017-10-11T07:16:12.060Z,44.93
2017-10-11T07:17:20.756Z,44.93
2017-10-11T07:18:30.118Z,44.83
2017-10-11T07:19:39.145Z,44.83
2017-10-11T07:20:48.180Z,44.83
2017-10-11T07:21:57.544Z,44.83
2017-10-11T07:23:06.902Z,45.03
2017-10-11T07:24:15.926Z,44.93
2017-10-11T07:25:24.954Z,44.54
2017-10-11T07:26:33.646Z,44.64
2017-10-11T07:27:43.340Z,44.83
2017-10-11T07:28:52.038Z,45.03
2017-10-11T07:30:01.396Z,44.64
2017-10-11T07:31:10.763Z,44.93
2017-10-11T07:32:20.456Z,44.73
2017-10-11T07:33:29.482Z,44.73
2017-10-11T07:34:38.512Z,44.83
2017-10-11T07:35:47.541Z,44.45
2017-10-11T07:36:57.232Z,44.54
2017-10-11T07:38:06.585Z,44.35
2017-10-11T07:39:15.610Z,44.54
2017-10-11T07:40:24.723Z,44.83
2017-10-11T07:41:34.130Z,44.54
2017-10-11T07:42:43.151Z,44.45
2017-10-11T07:43:52.513Z,44.64
2017-10-11T07:45:01.542Z,44.73
2017-10-11T07:46:11.247Z,44.45
2017-10-11T07:47:20.280Z,44.73
2017-10-11T07:48:29.311Z,44.73
2017-10-11T07:49:38.004Z,44.64
2017-10-11T07:50:47.033Z,44.64
2017-10-11T07:51:55.730Z,44.73
2017-10-11T07:53:05.110Z,44.64
2017-10-11T07:54:14.510Z,44.64
2017-10-11T07:55:23.895Z,44.54
2017-10-11T07:56:32.975Z,44.54
2017-10-11T07:57:42.002Z,44.64
2017-10-11T07:58:50.694Z,44.73
2017-10-11T07:59:59.748Z,44.35
2017-10-11T08:01:08.750Z,44.15
2017-10-11T08:02:18.222Z,44.35
2017-10-11T08:03:27.238Z,44.35
2017-10-11T08:04:35.965Z,44.25
2017-10-11T08:05:45.037Z,44.35
2017-10-11T08:06:53.726Z,44.35
2017-10-11T08:08:03.082Z,44.45
2017-10-11T08:09:12.772Z,44.25
2017-10-11T08:10:21.465Z,44.06
2017-10-11T08:11:30.495Z,44.73
2017-10-11T08:12:39.193Z,44.45
2017-10-11T08:13:48.224Z,44.15
2017-10-11T08:14:57.586Z,43.87
2017-10-11T08:16:07.281Z,44.15
2017-10-11T08:17:15.975Z,44.15
2017-10-11T08:18:25.008Z,44.25
2017-10-11T08:19:34.032Z,44.15
2017-10-11T08:20:43.058Z,44.15
2017-10-11T08:21:52.415Z,44.15
2017-10-11T08:23:01.114Z,44.35
2017-10-11T08:24:10.477Z,44.25
2017-10-11T08:25:19.498Z,44.45
2017-10-11T08:26:28.525Z,44.25
2017-10-11T08:27:37.883Z,44.15
2017-10-11T08:28:46.911Z,44.27
2017-10-11T08:29:56.606Z,44.35
2017-10-11T08:31:05.634Z,44.35
2017-10-11T08:32:14.332Z,44.15
2017-10-11T08:33:23.691Z,44.35
2017-10-11T08:34:32.717Z,44.45
2017-10-11T08:35:42.071Z,44.46
2017-10-11T08:36:51.096Z,44.45
2017-10-11T08:37:59.792Z,44.35
2017-10-11T08:39:08.827Z,44.37
2017-10-11T08:40:18.187Z,44.35
2017-10-11T08:41:27.211Z,44.15
2017-10-11T08:42:35.905Z,44.25
2017-10-11T08:43:44.937Z,44.35
2017-10-11T08:44:54.626Z,44.18
2017-10-11T08:46:03.654Z,44.46
2017-10-11T08:47:12.681Z,43.89
2017-10-11T08:48:21.377Z,44.06
2017-10-11T08:49:30.730Z,44.54
2017-10-11T08:50:39.763Z,43.98
2017-10-11T08:51:48.459Z,44.08
2017-10-11T08:52:57.154Z,44.08
2017-10-11T08:54:06.179Z,43.96
2017-10-11T08:55:14.875Z,43.96
2017-10-11T08:56:24.238Z,44.15
2017-10-11T08:57:33.613Z,44.15
2017-10-11T08:58:42.641Z,43.89
2017-10-11T08:59:51.663Z,44.06
2017-10-11T09:01:00.687Z,43.96
2017-10-11T09:02:09.711Z,44.06
2017-10-11T09:03:18.740Z,43.98
2017-10-11T09:04:27.438Z,44.25
2017-10-11T09:05:36.799Z,44.27
2017-10-11T09:06:45.830Z,44.27
2017-10-11T09:07:55.197Z,44.08
2017-10-11T09:09:04.227Z,44.06
2017-10-11T09:10:13.945Z,43.98
2017-10-11T09:11:23.027Z,44.27
2017-10-11T09:12:32.382Z,43.96
2017-10-11T09:13:41.077Z,43.89
2017-10-11T09:14:50.100Z,44.45
2017-10-11T09:15:59.462Z,43.98
2017-10-11T09:17:09.160Z,43.96
2017-10-11T09:18:18.515Z,43.98
2017-10-11T09:19:28.213Z,44.18
2017-10-11T09:20:37.581Z,43.77
2017-10-11T09:21:46.609Z,44.45
2017-10-11T09:22:56.298Z,43.89
2017-10-11T09:24:05.982Z,43.87
2017-10-11T09:25:15.339Z,43.7
2017-10-11T09:26:24.371Z,44.18
2017-10-11T09:27:33.407Z,44.06
2017-10-11T09:28:42.433Z,44.27
2017-10-11T09:29:51.475Z,44.37
2017-10-11T09:31:00.497Z,44.15
2017-10-11T09:32:09.858Z,43.87
2017-10-11T09:33:19.214Z,43.7
2017-10-11T09:34:28.576Z,44.18
2017-10-11T09:35:37.610Z,43.79
2017-10-11T09:36:46.638Z,43.79
2017-10-11T09:37:56.337Z,43.98
2017-10-11T09:39:05.689Z,43.79
2017-10-11T09:40:14.719Z,43.79
2017-10-11T09:41:23.747Z,43.7
2017-10-11T09:42:32.770Z,43.58
2017-10-11T09:43:41.800Z,43.7
2017-10-11T09:44:50.495Z,43.79
2017-10-11T09:45:59.854Z,43.96
2017-10-11T09:47:09.543Z,43.98
2017-10-11T09:48:18.906Z,43.98
2017-10-11T09:49:27.960Z,43.89
2017-10-11T09:50:36.656Z,43.98
2017-10-11T09:51:45.686Z,43.98
2017-10-11T09:52:54.711Z,43.89
2017-10-11T09:54:03.736Z,43.79
2017-10-11T09:55:13.090Z,43.41
2017-10-11T09:56:22.452Z,43.89
2017-10-11T09:57:31.479Z,43.6
2017-10-11T09:58:40.842Z,43.89
2017-10-11T09:59:50.199Z,43.7
2017-10-11T10:00:59.558Z,43.89
2017-10-11T10:02:08.584Z,43.98
2017-10-11T10:03:17.942Z,43.79
2017-10-11T10:04:27.296Z,43.7
2017-10-11T10:05:36.316Z,43.7
2017-10-11T10:06:45.668Z,44.08
2017-10-11T10:07:54.362Z,44.08
2017-10-11T10:09:03.718Z,43.6
2017-10-11T10:10:12.740Z,44.18
2017-10-11T10:11:22.097Z,43.7
2017-10-11T10:12:31.780Z,44.18
2017-10-11T10:13:41.143Z,43.7
2017-10-11T10:14:50.165Z,43.6
2017-10-11T10:15:58.865Z,43.6
2017-10-11T10:17:07.562Z,43.98
2017-10-11T10:18:17.257Z,43.6
2017-10-11T10:19:25.952Z,43.6
2017-10-11T10:20:35.312Z,43.6
2017-10-11T10:21:44.363Z,43.98
2017-10-11T10:22:53.048Z,43.98
2017-10-11T10:24:02.737Z,43.7
2017-10-11T10:25:11.432Z,43.79
2017-10-11T10:26:20.126Z,43.7
2017-10-11T10:27:29.824Z,43.89
2017-10-11T10:28:38.851Z,43.79
2017-10-11T10:29:48.212Z,43.6
2017-10-11T10:30:57.566Z,43.98
2017-10-11T10:32:06.922Z,43.79
2017-10-11T10:33:15.950Z,43.7
2017-10-11T10:34:24.645Z,43.79
2017-10-11T10:35:33.668Z,43.98
2017-10-11T10:36:42.692Z,43.89
2017-10-11T10:37:52.048Z,43.89
2017-10-11T10:39:01.080Z,43.89
2017-10-11T10:40:10.104Z,43.98
2017-10-11T10:41:19.131Z,43.7
2017-10-11T10:42:28.479Z,43.98
2017-10-11T10:43:37.511Z,43.79
2017-10-11T10:44:46.205Z,43.98
2017-10-11T10:45:54.899Z,43.5
2017-10-11T10:47:03.599Z,43.5
2017-10-11T10:48:12.321Z,43.89
2017-10-11T10:49:21.705Z,43.7
2017-10-11T10:50:30.735Z,43.21
2017-10-11T10:51:39.429Z,43.21
2017-10-11T10:52:48.453Z,43.12
2017-10-11T10:53:57.148Z,43.21
2017-10-11T10:55:06.506Z,43.12
2017-10-11T10:56:15.877Z,43.5
2017-10-11T10:57:24.914Z,43.5
2017-10-11T10:58:33.607Z,43.5
2017-10-11T10:59:43.294Z,43.41
2017-10-11T11:00:52.660Z,43.41
2017-10-11T11:02:02.015Z,43.41
2017-10-11T11:03:11.039Z,43.41
2017-10-11T11:04:19.731Z,43.41
2017-10-11T11:05:30.083Z,43.5
2017-10-11T11:06:38.774Z,43.31
2017-10-11T11:07:47.822Z,43.5
2017-10-11T11:08:56.848Z,43.41
2017-10-11T11:10:05.543Z,43.41
2017-10-11T11:11:14.567Z,43.6
2017-10-11T11:12:23.260Z,43.5
2017-10-11T11:13:31.955Z,43.5
2017-10-11T11:14:40.986Z,43.31
2017-10-11T11:15:50.348Z,43.5
2017-10-11T11:16:59.375Z,43.31
2017-10-11T11:18:08.074Z,43.5
2017-10-11T11:19:17.437Z,43.41
2017-10-11T11:20:26.133Z,43.5
2017-10-11T11:21:35.158Z,43.5
2017-10-11T11:22:44.530Z,43.5
2017-10-11T11:23:53.557Z,43.6
2017-10-11T11:25:02.255Z,43.31
2017-10-11T11:26:11.610Z,43.41
2017-10-11T11:27:20.307Z,43.5
2017-10-11T11:28:29.668Z,43.5
2017-10-11T11:29:38.689Z,43.41
2017-10-11T11:30:47.726Z,43.41
2017-10-11T11:31:57.412Z,43.5
2017-10-11T11:33:06.107Z,43.41
2017-10-11T11:34:15.135Z,43.5
2017-10-11T11:35:23.830Z,43.41
2017-10-11T11:36:33.191Z,43.5
2017-10-11T11:37:42.558Z,43.41
2017-10-11T11:38:51.922Z,43.41
2017-10-11T11:40:01.285Z,43.31
2017-10-11T11:41:09.986Z,43.6
2017-10-11T11:42:19.021Z,43.31
2017-10-11T11:43:28.381Z,43.21
2017-10-11T11:44:37.745Z,43.5
2017-10-11T11:45:46.771Z,43.41
2017-10-11T11:46:56.131Z,43.41
2017-10-11T11:48:05.167Z,43.31
2017-10-11T11:49:14.194Z,43.41
2017-10-11T11:50:23.216Z,43.5
2017-10-11T11:51:32.911Z,43.41
2017-10-11T11:52:41.945Z,43.41
2017-10-11T11:53:51.307Z,43.41
2017-10-11T11:55:00.332Z,43.41
2017-10-11T11:56:09.361Z,43.5
2017-10-11T11:57:18.383Z,43.21
2017-10-11T11:58:27.404Z,43.31
2017-10-11T11:59:36.096Z,43.12
2017-10-11T12:00:44.789Z,43.5
2017-10-11T12:01:54.154Z,43.31
2017-10-11T12:03:03.852Z,43.21
2017-10-11T12:04:12.549Z,43.21
2017-10-11T12:05:21.241Z,43.02
2017-10-11T12:06:30.598Z,43.21
2017-10-11T12:07:39.962Z,43.02
2017-10-11T12:08:48.979Z,43.31
2017-10-11T12:09:58.344Z,43.02
2017-10-11T12:11:07.032Z,43.41
2017-10-11T12:12:17.052Z,43.31
2017-10-11T12:13:27.074Z,43.02
2017-10-11T12:14:35.768Z,43.12
2017-10-11T12:15:44.461Z,43.12
2017-10-11T12:16:53.823Z,43.02
2017-10-11T12:18:03.514Z,43.21
2017-10-11T12:19:12.871Z,43.21
2017-10-11T12:20:21.899Z,43.21
2017-10-11T12:21:30.596Z,43.21
2017-10-11T12:22:40.296Z,43.02
2017-10-11T12:23:48.995Z,43.12
2017-10-11T12:24:58.025Z,43.12
2017-10-11T12:26:06.722Z,43.31
2017-10-11T12:27:15.419Z,43.31
2017-10-11T12:28:24.450Z,43.12
2017-10-11T12:29:33.819Z,43.41
2017-10-11T12:30:42.842Z,43.41
2017-10-11T12:31:51.537Z,43.21
2017-10-11T12:33:00.232Z,43.21
2017-10-11T12:34:09.258Z,43.02
2017-10-11T12:35:18.619Z,43.31
2017-10-11T12:36:27.968Z,43.41
2017-10-11T12:37:36.992Z,43.12
2017-10-11T12:38:46.357Z,43.21
2017-10-11T12:39:55.384Z,43.02
2017-10-11T12:41:04.079Z,43.02
2017-10-11T12:42:13.775Z,43.31
2017-10-11T12:43:22.797Z,43.02
2017-10-11T12:44:31.547Z,43.31
2017-10-11T12:45:40.572Z,43.02
2017-10-11T12:46:49.928Z,43.12
2017-10-11T12:47:58.953Z,43.12
2017-10-11T12:49:08.320Z,43.21
2017-10-11T12:50:17.346Z,43.02
2017-10-11T12:51:26.040Z,43.12
2017-10-11T12:52:34.736Z,43.02
2017-10-11T12:53:43.764Z,43.12
2017-10-11T12:54:52.793Z,43.21
2017-10-11T12:56:02.482Z,43.21
2017-10-11T12:57:11.175Z,43.12
2017-10-11T12:58:20.202Z,43.21
2017-10-11T12:59:29.233Z,43.31
2017-10-11T13:00:38.258Z,43.12
2017-10-11T13:01:47.290Z,43.31
2017-10-11T13:02:56.652Z,43.31
2017-10-11T13:04:06.009Z,43.02
2017-10-11T13:05:14.703Z,43.02
2017-10-11T13:06:24.065Z,43.21
2017-10-11T13:07:33.089Z,43.12
2017-10-11T13:08:42.454Z,43.12
2017-10-11T13:09:51.817Z,43.31
2017-10-11T13:11:01.507Z,43.12
2017-10-11T13:12:10.883Z,43.21
2017-10-11T13:13:19.893Z,43.02
2017-10-11T13:14:29.264Z,42.93
2017-10-11T13:15:38.622Z,43.02
2017-10-11T13:16:47.654Z,43.02
2017-10-11T13:17:56.339Z,43.02
2017-10-11T13:19:05.714Z,43.12
2017-10-11T13:20:15.068Z,43.12
2017-10-11T13:21:23.761Z,42.93
2017-10-11T13:22:32.456Z,43.21
2017-10-11T13:23:41.482Z,43.12
2017-10-11T13:24:50.844Z,43.02
2017-10-11T13:25:59.544Z,43.21
2017-10-11T13:27:08.236Z,43.12
2017-10-11T13:28:16.929Z,42.83
2017-10-11T13:29:25.953Z,42.93
2017-10-11T13:30:34.975Z,43.12
2017-10-11T13:31:43.998Z,43.12
2017-10-11T13:32:53.021Z,43.02
2017-10-11T13:34:01.717Z,43.12
2017-10-11T13:35:10.747Z,43.21
2017-10-11T13:36:20.104Z,43.02
2017-10-11T13:37:28.801Z,43.12
2017-10-11T13:38:37.831Z,43.21
2017-10-11T13:39:47.517Z,43.02
2017-10-11T13:40:56.563Z,43.12
2017-10-11T13:42:05.581Z,43.02
2017-10-11T13:43:14.937Z,43.02
2017-10-11T13:44:24.308Z,43.21
2017-10-11T13:45:33.654Z,43.21
2017-10-11T13:46:42.684Z,42.93
2017-10-11T13:47:51.381Z,43.02
2017-10-11T13:49:00.743Z,43.21
2017-10-11T13:59:49.095Z,42.93
2017-10-11T14:00:57.791Z,43.02
2017-10-11T14:02:06.487Z,42.93
2017-10-11T14:03:15.182Z,43.12
2017-10-11T14:04:24.220Z,43.02
2017-10-11T14:05:33.250Z,43.02
2017-10-11T14:06:42.282Z,42.93
2017-10-11T14:07:51.648Z,43.12
2017-10-11T14:09:00.683Z,42.93
2017-10-11T14:10:09.716Z,42.83
2017-10-11T14:11:19.078Z,43.02
2017-10-11T14:12:28.772Z,43.12
2017-10-11T14:13:38.134Z,42.73
2017-10-11T14:14:46.833Z,42.73
2017-10-11T14:15:55.531Z,43.12
2017-10-11T14:17:05.228Z,42.73
2017-10-11T14:18:14.593Z,42.73
2017-10-11T14:19:23.296Z,42.63
2017-10-11T14:20:32.659Z,43.12
2017-10-11T14:21:42.034Z,42.63
2017-10-11T14:22:51.399Z,42.93
2017-10-11T14:24:01.089Z,43.12
2017-10-11T14:25:10.120Z,42.63
2017-10-11T14:26:19.479Z,43.02
2017-10-11T14:27:28.539Z,42.73
2017-10-11T14:28:37.235Z,42.54
2017-10-11T14:29:46.269Z,42.63
2017-10-11T14:30:55.958Z,42.73
2017-10-11T14:32:04.658Z,42.93
2017-10-11T14:33:13.355Z,43.31
2017-10-11T14:34:22.405Z,42.63
2017-10-11T14:35:31.104Z,42.93
2017-10-11T14:36:40.144Z,43.31
2017-10-11T14:37:48.838Z,42.83
2017-10-11T14:38:57.869Z,43.12
2017-10-11T14:40:07.230Z,43.02
2017-10-11T14:41:16.953Z,42.83
2017-10-11T14:42:25.652Z,42.73
2017-10-11T14:43:35.010Z,42.73
2017-10-11T14:44:43.710Z,42.73
2017-10-11T14:45:53.400Z,42.54
2017-10-11T14:47:02.101Z,43.02
2017-10-11T14:48:11.146Z,43.12
2017-10-11T14:49:20.840Z,43.02
2017-10-11T14:50:30.569Z,42.54
2017-10-11T14:51:39.938Z,42.63
2017-10-11T14:52:49.644Z,43.02
2017-10-11T14:53:59.007Z,43.02
2017-10-11T14:55:08.034Z,43.12
2017-10-11T14:56:17.063Z,42.44
2017-10-11T14:57:25.766Z,42.73
2017-10-11T14:58:35.126Z,43.02
2017-10-11T14:59:44.491Z,42.44
2017-10-11T15:00:53.852Z,42.73
2017-10-11T15:02:02.884Z,42.63